Sunday, September 23, 2018, 2:34 AM GMT
Back to Local

CYQI, Yarmouth, N. S.

Location: , , Canada Lat: 43.833
Local Time: 2:34 AM GMT ( 2:34 GMT) Lon: -66.083
Time Zone: GMT Elev: 141 ft

Show me the last for .
Show Coded

Time T Td Feel RH Dir Speed Gust Alt SLP Vis Weather Sky Remarks
2018-09-23 02:00 50 43 48 76 340° 6 - 30.17 30.18 15 BKN150 None
2018-09-23 01:00 52 43 - 71 350° 5 - 30.15 30.16 15 BKN100 None
2018-09-23 00:00 54 41 - 62 360° 5 - 30.13 30.14 15 SCT075 BKN100 None
2018-09-22 23:00 54 41 - 62 340° 9 - 30.10 30.10 15 SCT075 BKN100 None
2018-09-22 22:00 57 45 - 62 340° 8 - 30.07 30.07 15 FEW075 SCT100 BKN210 None
2018-09-22 21:00 59 46 - 62 340° 16 - 30.05 30.05 15 FEW100 BKN210 None
2018-09-22 20:00 61 48 - 63 340° 18 - 30.01 30.02 15 FEW100 SCT210 None
2018-09-22 19:00 63 50 - 63 340° 18 29 30.00 30.00 15 FEW100 BKN210 None
2018-09-22 18:00 64 50 - 59 330° 21 35 29.97 29.98 15 FEW040 SCT075 SCT210 None
2018-09-22 17:00 66 52 - 59 320° 21 31 29.95 29.96 15 FEW040 FEW068 SCT075 None
2018-09-22 16:00 66 52 - 59 310° 22 35 29.93 29.93 12 FEW040 FEW068 SCT075 None
2018-09-22 15:00 66 59 - 77 310° 15 22 29.91 29.91 9 FEW040 FEW059 SCT073 None
2018-09-22 14:00 64 61 - 88 280° 18 - 29.88 29.88 7 OVC050 None
2018-09-22 13:22 63 63 - 100 280° 16 28 29.87 29.87 4 BR SCT007 SCT015 OVC057 None
2018-09-22 13:00 64 63 - 93 270° 22 31 29.85 29.85 4 -SHRA BKN012 OVC015 None
2018-09-22 12:44 64 63 - 93 270° 20 30 29.84 29.84 3 -SHRA BKN013 OVC015 None
2018-09-22 12:10 64 63 - 93 240° 22 32 29.82 29.83 2 BR BKN009 OVC015 None
2018-09-22 12:00 64 63 - 93 230° 20 31 29.82 29.83 3 BR SCT009 OVC015 None
2018-09-22 11:00 64 63 - 93 220° 22 30 29.82 29.82 8 FEW007 OVC020 None
2018-09-22 10:00 64 61 - 88 210° 23 36 29.80 29.81 10 FEW007 OVC036 None
2018-09-22 09:00 63 61 - 93 200° 20 30 29.82 29.83 15 BKN045 None
2018-09-22 08:00 63 61 - 93 210° 17 29 29.88 29.88 15 BKN043 None
2018-09-22 07:00 63 59 - 88 210° 21 29 29.89 29.90 15 BKN026 None
2018-09-22 06:00 63 59 - 88 200° 18 30 29.92 29.92 15 BKN027 None
2018-09-22 05:00 63 59 - 88 190° 17 25 29.96 29.96 15 BKN026 None
2018-09-22 04:00 63 57 - 82 190° 18 31 30.00 30.00 15 BKN029 None
2018-09-22 03:00 63 57 - 82 190° 22 30 30.01 30.02 15 BKN035 None

Support USWX by starting your Amazon purchase here.